Current Weather

Pemba

Pemba, Mozambique (FQPB)

Report from: Monday, May 23, 2022 9:00 AM CAT
Current time: Monday, May 23, 2022 11:03 AM CAT

Nearby weather
Weather history
Weather forecast

Temperature27.0°C (80.6°F)
Heat index30.1°C (86.2°F)
Dew point24.0°C (75.2°F)
Winds 4 kts (2.1 m/s, 4.6 mph) Vrb
Winds variableWinds variable from Southwest (230°) to Northwest (310°)
Visibility6.2 mi. (10 km)
Clouds Scattered clouds 2,000 ft. (610 m)
Altimeter30.00 in.Hg (1016 mB)
Relative humidity84 %
Density altitude1,690 ft. (515 m)
Flight conditions Visual Meteorological Conditions
Raw dataFQPB 230700Z 28004KT 230V310 9999 SCT020 27/24 Q1016
An error has occurred. This application may no longer respond until reloaded. Reload 🗙